Time;durP1;ratioP1;P1;durP2;ratioP2;P2;SDS_P1;SDS_P2;PMS_P1;PMS_P2;Temp;Humidity;BMP_temperature;BMP_pressure;BME280_temperature;BME280_humidity;BME280_pressure;Samples;Min_cycle;Max_cycle;Signal;HPM_P1;HPM_P2
2023/01/07 00:00:49;;;;;;;45.08;24.83;;;;;;;;;;5032940;28;20040;-67
2023/01/07 00:03:16;;;;;;;42.05;24.30;;;;;;;;;;5033495;28;20037;-67
2023/01/07 00:05:42;;;;;;;45.58;23.20;;;;;;;;;;5033809;28;20060;-67
2023/01/07 00:08:09;;;;;;;40.33;22.77;;;;;;;;;;5033245;28;20391;-67
2023/01/07 00:10:35;;;;;;;45.70;23.40;;;;;;;;;;5035298;28;20041;-67
2023/01/07 00:13:01;;;;;;;42.75;22.92;;;;;;;;;;5052996;28;20045;-67
2023/01/07 00:15:27;;;;;;;41.28;23.88;;;;;;;;;;5053151;28;20448;-67
2023/01/07 00:17:53;;;;;;;43.78;23.58;;;;;;;;;;5053050;28;20626;-67
2023/01/07 00:20:19;;;;;;;49.45;24.08;;;;;;;;;;5053280;28;20049;-67
2023/01/07 00:22:45;;;;;;;46.97;25.05;;;;;;;;;;5052453;28;20045;-67
2023/01/07 00:25:11;;;;;;;42.97;22.45;;;;;;;;;;5051497;28;20537;-67
2023/01/07 00:27:37;;;;;;;46.75;24.35;;;;;;;;;;5031642;28;20041;-67
2023/01/07 00:30:03;;;;;;;43.08;23.50;;;;;;;;;;5033003;28;20045;-67
2023/01/07 00:35:22;;;;;;;46.33;23.67;;;;;;;;;;5033238;28;20066;-67
2023/01/07 00:37:52;;;;;;;41.75;22.92;;;;;;;;;;5032554;28;20145;-67
2023/01/07 00:40:19;;;;;;;43.55;23.75;;;;;;;;;;5033163;28;20049;-67
2023/01/07 00:42:54;;;;;;;44.50;23.75;;;;;;;;;;5031336;28;20041;-67
2023/01/07 00:45:21;;;;;;;46.80;24.95;;;;;;;;;;5032730;28;20064;-67
2023/01/07 00:47:47;;;;;;;49.03;24.17;;;;;;;;;;5033139;28;20496;-67
2023/01/07 00:50:13;;;;;;;47.03;24.52;;;;;;;;;;5032763;28;20037;-67
2023/01/07 00:52:39;;;;;;;47.75;23.17;;;;;;;;;;5032366;28;20088;-67
2023/01/07 00:55:05;;;;;;;45.03;24.60;;;;;;;;;;5031534;28;20033;-67
2023/01/07 00:57:31;;;;;;;49.33;24.63;;;;;;;;;;5032922;28;20030;-67
2023/01/07 00:59:57;;;;;;;43.33;24.42;;;;;;;;;;5030635;28;20379;-67
2023/01/07 01:02:24;;;;;;;53.15;26.40;;;;;;;;;;5032584;28;20049;-67
2023/01/07 01:04:50;;;;;;;48.25;24.30;;;;;;;;;;5032555;28;20037;-67
2023/01/07 01:07:16;;;;;;;40.67;23.30;;;;;;;;;;5032266;28;20048;-67
2023/01/07 01:09:42;;;;;;;49.95;24.90;;;;;;;;;;5032483;28;20041;-67
2023/01/07 01:12:08;;;;;;;50.20;24.67;;;;;;;;;;5045656;28;20079;-67
2023/01/07 01:14:34;;;;;;;50.30;25.00;;;;;;;;;;5051869;28;20410;-67
2023/01/07 01:17:00;;;;;;;45.35;23.02;;;;;;;;;;5052199;28;20124;-67
2023/01/07 01:19:26;;;;;;;40.63;23.05;;;;;;;;;;5051682;28;20040;-67
2023/01/07 01:21:52;;;;;;;42.05;23.83;;;;;;;;;;5050399;28;20048;-67
2023/01/07 01:24:18;;;;;;;46.58;24.90;;;;;;;;;;5052087;28;20037;-67
2023/01/07 01:26:44;;;;;;;49.75;23.98;;;;;;;;;;5037738;28;20073;-67
2023/01/07 01:29:10;;;;;;;45.83;24.58;;;;;;;;;;5031931;28;20060;-67
2023/01/07 01:31:36;;;;;;;45.17;25.63;;;;;;;;;;5032114;28;20068;-67
2023/01/07 01:34:02;;;;;;;47.80;24.90;;;;;;;;;;5031696;28;20038;-67
2023/01/07 01:36:28;;;;;;;42.50;23.95;;;;;;;;;;5030932;28;20120;-67
2023/01/07 01:38:56;;;;;;;48.25;25.38;;;;;;;;;;5032055;28;20512;-67
2023/01/07 01:41:22;;;;;;;45.83;25.10;;;;;;;;;;5031868;28;20400;-67
2023/01/07 01:43:48;;;;;;;48.60;25.63;;;;;;;;;;5013633;28;20045;-67
2023/01/07 01:46:14;;;;;;;48.40;25.23;;;;;;;;;;5031905;28;20052;-67
2023/01/07 01:48:44;;;;;;;46.55;25.33;;;;;;;;;;5031774;28;20514;-67
2023/01/07 01:51:12;;;;;;;43.28;24.88;;;;;;;;;;5013528;28;20045;-67
2023/01/07 01:53:38;;;;;;;41.47;23.90;;;;;;;;;;5031626;28;20045;-67
2023/01/07 01:56:08;;;;;;;46.72;26.63;;;;;;;;;;5031750;28;20041;-67
2023/01/07 01:58:37;;;;;;;41.28;25.13;;;;;;;;;;5031502;28;20068;-67
2023/01/07 02:01:03;;;;;;;47.15;24.92;;;;;;;;;;5031610;28;20048;-67
2023/01/07 02:03:30;;;;;;;42.10;24.58;;;;;;;;;;5031225;28;20037;-67
2023/01/07 02:05:57;;;;;;;43.30;25.27;;;;;;;;;;5031012;28;20037;-67
2023/01/07 02:08:23;;;;;;;42.17;25.92;;;;;;;;;;5031685;28;20060;-67
2023/01/07 02:11:00;;;;;;;44.78;25.23;;;;;;;;;;5033501;28;20049;-67
2023/01/07 02:13:37;;;;;;;40.47;25.38;;;;;;;;;;5050846;28;20036;-67
2023/01/07 02:16:21;;;;;;;40.65;25.30;;;;;;;;;;5051087;28;20041;-67
2023/01/07 02:18:47;;;;;;;38.22;24.50;;;;;;;;;;5050992;28;20037;-67
2023/01/07 02:21:19;;;;;;;36.72;24.90;;;;;;;;;;5050272;28;20088;-67
2023/01/07 02:24:04;;;;;;;36.92;24.20;;;;;;;;;;5051073;28;20049;-67
2023/01/07 02:26:48;;;;;;;42.15;24.45;;;;;;;;;;5038582;28;20037;-67
2023/01/07 02:29:17;;;;;;;38.13;23.85;;;;;;;;;;5030934;28;20045;-68
2023/01/07 02:31:46;;;;;;;39.83;25.38;;;;;;;;;;5031027;28;20055;-67
2023/01/07 02:34:22;;;;;;;41.00;26.02;;;;;;;;;;5031059;28;20094;-67
2023/01/07 02:37:05;;;;;;;38.53;25.05;;;;;;;;;;5028958;28;20087;-67
2023/01/07 02:39:37;;;;;;;38.08;24.13;;;;;;;;;;5030913;28;20076;-67
2023/01/07 02:42:07;;;;;;;35.88;23.77;;;;;;;;;;5030233;28;20046;-67
2023/01/07 02:44:33;;;;;;;35.33;24.02;;;;;;;;;;5028872;28;20124;-67
2023/01/07 02:47:02;;;;;;;35.85;25.02;;;;;;;;;;5030658;28;20091;-67
2023/01/07 02:49:28;;;;;;;36.80;24.60;;;;;;;;;;5030941;28;20052;-67
2023/01/07 02:51:54;;;;;;;35.50;23.38;;;;;;;;;;5029846;28;20079;-67
2023/01/07 02:54:22;;;;;;;34.03;23.45;;;;;;;;;;5029395;28;20067;-67
2023/01/07 02:56:58;;;;;;;37.90;25.48;;;;;;;;;;5030820;28;20041;-67
2023/01/07 02:59:30;;;;;;;34.13;23.63;;;;;;;;;;5030355;28;20049;-67
2023/01/07 03:01:56;;;;;;;34.30;22.35;;;;;;;;;;5030507;28;20451;-67
2023/01/07 03:04:22;;;;;;;35.35;23.80;;;;;;;;;;5030628;28;20053;-67
2023/01/07 03:07:07;;;;;;;32.95;23.05;;;;;;;;;;5030228;28;20392;-67
2023/01/07 03:09:40;;;;;;;34.90;22.85;;;;;;;;;;5030632;28;20069;-67
2023/01/07 03:12:09;;;;;;;32.03;22.77;;;;;;;;;;5044615;28;20033;-67
2023/01/07 03:14:35;;;;;;;33.25;22.50;;;;;;;;;;5049967;28;20040;-67
2023/01/07 03:17:04;;;;;;;31.98;22.23;;;;;;;;;;5048953;28;20498;-67
2023/01/07 03:19:32;;;;;;;31.77;21.63;;;;;;;;;;5049662;28;20045;-67
2023/01/07 03:21:59;;;;;;;32.05;20.80;;;;;;;;;;5049847;28;20049;-67
2023/01/07 03:24:25;;;;;;;32.20;21.17;;;;;;;;;;5050403;28;20037;-67
2023/01/07 03:26:54;;;;;;;33.88;21.20;;;;;;;;;;5035127;28;20476;-67
2023/01/07 03:29:21;;;;;;;30.63;20.58;;;;;;;;;;5029967;28;20041;-67
2023/01/07 03:32:09;;;;;;;36.03;22.58;;;;;;;;;;5029028;28;20037;-67
2023/01/07 03:34:36;;;;;;;30.35;21.60;;;;;;;;;;5030262;28;20045;-67
2023/01/07 03:37:07;;;;;;;29.33;20.75;;;;;;;;;;5028860;28;20045;-67
2023/01/07 03:39:34;;;;;;;30.45;21.08;;;;;;;;;;5030064;28;20495;-67
2023/01/07 03:44:44;;;;;;;28.08;19.48;;;;;;;;;;5030406;28;20049;-67
2023/01/07 03:47:11;;;;;;;29.45;20.35;;;;;;;;;;5030272;28;20558;-67
2023/01/07 03:49:37;;;;;;;32.00;19.70;;;;;;;;;;5029760;28;20041;-67
2023/01/07 03:52:03;;;;;;;30.70;20.30;;;;;;;;;;5030050;28;20074;-67
2023/01/07 03:54:29;;;;;;;31.08;19.40;;;;;;;;;;5030065;28;20124;-67
2023/01/07 03:56:55;;;;;;;26.75;19.23;;;;;;;;;;5029939;28;20119;-67
2023/01/07 03:59:21;;;;;;;26.80;19.17;;;;;;;;;;5031813;28;20042;-67
2023/01/07 04:01:47;;;;;;;26.10;17.90;;;;;;;;;;5032463;28;20065;-67
2023/01/07 04:04:14;;;;;;;30.20;18.20;;;;;;;;;;5033240;28;20052;-67
2023/01/07 04:06:40;;;;;;;28.80;17.95;;;;;;;;;;5033572;28;20120;-67
2023/01/07 04:09:06;;;;;;;26.13;18.27;;;;;;;;;;5032019;28;20069;-66
2023/01/07 04:11:32;;;;;;;27.13;17.52;;;;;;;;;;5043116;28;20044;-66
2023/01/07 04:13:59;;;;;;;24.77;18.13;;;;;;;;;;5053036;28;20099;-66
2023/01/07 04:16:26;;;;;;;28.13;17.25;;;;;;;;;;5052206;28;20052;-66
2023/01/07 04:18:52;;;;;;;22.90;16.17;;;;;;;;;;5051726;28;20399;-66
2023/01/07 04:21:18;;;;;;;24.30;16.73;;;;;;;;;;5051392;28;20102;-66
2023/01/07 04:23:44;;;;;;;22.75;16.23;;;;;;;;;;5053231;28;20187;-66
2023/01/07 04:26:10;;;;;;;22.00;15.48;;;;;;;;;;5042215;28;20528;-66
2023/01/07 04:28:36;;;;;;;25.13;17.05;;;;;;;;;;5033042;28;20124;-66
2023/01/07 04:31:02;;;;;;;22.67;16.10;;;;;;;;;;5033256;28;20041;-66
2023/01/07 04:33:28;;;;;;;22.25;15.63;;;;;;;;;;5033065;28;20049;-66
2023/01/07 04:35:54;;;;;;;27.02;16.75;;;;;;;;;;5032816;28;20095;-66
2023/01/07 04:38:20;;;;;;;24.17;16.00;;;;;;;;;;5032824;28;20041;-66
2023/01/07 04:40:46;;;;;;;23.48;15.57;;;;;;;;;;5031711;28;20041;-66
2023/01/07 04:43:12;;;;;;;21.30;15.38;;;;;;;;;;5031322;28;20039;-66
2023/01/07 04:45:38;;;;;;;21.02;15.45;;;;;;;;;;5032884;28;20663;-66
2023/01/07 04:48:04;;;;;;;24.50;16.08;;;;;;;;;;5031889;28;20037;-67
2023/01/07 04:50:30;;;;;;;20.80;14.95;;;;;;;;;;5032630;28;20408;-67
2023/01/07 04:52:56;;;;;;;21.48;15.63;;;;;;;;;;5032686;28;20053;-67
2023/01/07 04:55:23;;;;;;;22.38;15.13;;;;;;;;;;5031455;28;20045;-67
2023/01/07 04:57:49;;;;;;;23.17;15.32;;;;;;;;;;5031166;28;20045;-67
2023/01/07 05:00:15;;;;;;;21.00;14.95;;;;;;;;;;5032853;28;20041;-67
2023/01/07 05:02:41;;;;;;;21.52;14.18;;;;;;;;;;5032392;28;20037;-67
2023/01/07 05:05:07;;;;;;;23.00;15.05;;;;;;;;;;5032004;28;20446;-67
2023/01/07 05:07:33;;;;;;;19.92;13.90;;;;;;;;;;5032527;28;20076;-67
2023/01/07 05:09:59;;;;;;;22.00;14.15;;;;;;;;;;5031353;28;20049;-67
2023/01/07 05:12:25;;;;;;;19.40;13.65;;;;;;;;;;5048787;28;20438;-67
2023/01/07 05:14:51;;;;;;;20.63;13.02;;;;;;;;;;5052289;28;20041;-68
2023/01/07 05:17:17;;;;;;;18.05;12.48;;;;;;;;;;5051917;28;20111;-67
2023/01/07 05:19:43;;;;;;;16.30;12.35;;;;;;;;;;5051660;28;20056;-67
2023/01/07 05:22:09;;;;;;;19.48;13.10;;;;;;;;;;5051731;28;20143;-67
2023/01/07 05:24:35;;;;;;;17.92;12.32;;;;;;;;;;5052128;28;20135;-67
2023/01/07 05:27:01;;;;;;;17.52;12.98;;;;;;;;;;5033742;28;20045;-67
2023/01/07 05:29:27;;;;;;;19.27;12.20;;;;;;;;;;5032217;28;20091;-67
2023/01/07 05:31:53;;;;;;;17.45;12.13;;;;;;;;;;5031857;28;20061;-67
2023/01/07 05:34:19;;;;;;;18.48;12.40;;;;;;;;;;5031603;28;20087;-67
2023/01/07 05:36:45;;;;;;;18.50;11.52;;;;;;;;;;5031679;28;20049;-67
2023/01/07 05:39:11;;;;;;;17.65;11.85;;;;;;;;;;5030421;28;20046;-67
2023/01/07 05:41:37;;;;;;;14.93;11.40;;;;;;;;;;5031624;28;20091;-67
2023/01/07 05:44:03;;;;;;;17.00;11.40;;;;;;;;;;5031834;28;20120;-67
2023/01/07 05:46:29;;;;;;;14.82;10.75;;;;;;;;;;5031908;28;20026;-67
2023/01/07 05:48:55;;;;;;;16.60;11.20;;;;;;;;;;5031252;28;20560;-67
2023/01/07 05:51:22;;;;;;;13.75;10.20;;;;;;;;;;5031829;28;20037;-67
2023/01/07 05:53:48;;;;;;;16.90;10.50;;;;;;;;;;5031243;28;20033;-67
2023/01/07 05:56:14;;;;;;;15.10;10.52;;;;;;;;;;5030998;28;20094;-67
2023/01/07 05:58:40;;;;;;;12.80;10.20;;;;;;;;;;5031473;28;20045;-67
2023/01/07 06:01:06;;;;;;;18.15;10.15;;;;;;;;;;5031433;28;20047;-67
2023/01/07 06:03:32;;;;;;;12.80;9.75;;;;;;;;;;5030952;28;20050;-67
2023/01/07 06:05:58;;;;;;;12.80;10.80;;;;;;;;;;5031427;28;20087;-67
2023/01/07 06:08:24;;;;;;;13.75;9.90;;;;;;;;;;5031555;28;20364;-67
2023/01/07 06:10:50;;;;;;;14.35;10.48;;;;;;;;;;5034389;28;20040;-67
2023/01/07 06:13:16;;;;;;;15.75;10.52;;;;;;;;;;5049531;28;20170;-67
2023/01/07 06:15:42;;;;;;;15.70;10.25;;;;;;;;;;5051264;28;20498;-67
2023/01/07 06:18:08;;;;;;;14.82;9.48;;;;;;;;;;5050700;28;20045;-67
2023/01/07 06:20:34;;;;;;;11.60;8.70;;;;;;;;;;5050722;28;20516;-67
2023/01/07 06:23:03;;;;;;;15.00;9.63;;;;;;;;;;5049506;28;20155;-67
2023/01/07 06:25:29;;;;;;;14.38;9.82;;;;;;;;;;5045592;28;20117;-67
2023/01/07 06:27:57;;;;;;;12.98;9.38;;;;;;;;;;5031120;28;20747;-67
2023/01/07 06:30:23;;;;;;;14.75;8.98;;;;;;;;;;5029562;28;20119;-67
2023/01/07 06:32:49;;;;;;;12.27;9.38;;;;;;;;;;5030668;28;20048;-67
2023/01/07 06:35:15;;;;;;;12.98;9.23;;;;;;;;;;5030623;28;20072;-67
2023/01/07 06:37:41;;;;;;;12.00;9.23;;;;;;;;;;5030934;28;20128;-67
2023/01/07 06:40:08;;;;;;;12.02;8.30;;;;;;;;;;5028755;28;20072;-67
2023/01/07 06:42:34;;;;;;;13.18;9.18;;;;;;;;;;5029546;28;20041;-67
2023/01/07 06:45:00;;;;;;;17.30;9.02;;;;;;;;;;5030539;28;20037;-67
2023/01/07 06:47:26;;;;;;;12.93;8.45;;;;;;;;;;5030577;28;20046;-67
2023/01/07 06:49:52;;;;;;;12.57;8.45;;;;;;;;;;5029418;28;20656;-67
2023/01/07 06:52:18;;;;;;;11.23;7.68;;;;;;;;;;5030762;28;20156;-67
2023/01/07 06:54:44;;;;;;;11.27;8.00;;;;;;;;;;5029045;28;20719;-67
2023/01/07 06:57:10;;;;;;;11.75;7.78;;;;;;;;;;5030977;28;20077;-67
2023/01/07 06:59:36;;;;;;;10.60;7.72;;;;;;;;;;5030404;28;20041;-67
2023/01/07 07:02:02;;;;;;;14.05;8.05;;;;;;;;;;5029859;28;20044;-67
2023/01/07 07:04:28;;;;;;;10.25;7.70;;;;;;;;;;5028753;28;20049;-67
2023/01/07 07:06:54;;;;;;;15.98;8.10;;;;;;;;;;5030489;28;20049;-67
2023/01/07 07:09:20;;;;;;;13.20;8.13;;;;;;;;;;5029889;28;20041;-67
2023/01/07 07:11:46;;;;;;;10.73;7.20;;;;;;;;;;5042160;28;20499;-67
2023/01/07 07:14:12;;;;;;;15.00;7.75;;;;;;;;;;5049901;28;20053;-67
2023/01/07 07:16:38;;;;;;;11.13;7.53;;;;;;;;;;5049966;28;20048;-67
2023/01/07 07:19:04;;;;;;;11.82;7.32;;;;;;;;;;5050388;28;20087;-67
2023/01/07 07:21:30;;;;;;;9.82;7.30;;;;;;;;;;5049897;28;20132;-67
2023/01/07 07:23:56;;;;;;;9.43;7.20;;;;;;;;;;5049890;28;20095;-67
2023/01/07 07:26:22;;;;;;;11.88;6.85;;;;;;;;;;5038636;28;20046;-67
2023/01/07 07:28:48;;;;;;;9.65;6.82;;;;;;;;;;5030282;28;20128;-67
2023/01/07 07:31:14;;;;;;;8.63;6.60;;;;;;;;;;5030290;28;20049;-67
2023/01/07 07:33:40;;;;;;;12.50;6.65;;;;;;;;;;5031945;28;20048;-67
2023/01/07 07:36:07;;;;;;;9.57;6.25;;;;;;;;;;5033970;28;20124;-67
2023/01/07 07:38:33;;;;;;;8.85;6.55;;;;;;;;;;5033081;28;20431;-67
2023/01/07 07:41:00;;;;;;;11.20;7.03;;;;;;;;;;5033735;28;20556;-67
2023/01/07 07:43:26;;;;;;;10.45;6.55;;;;;;;;;;5032642;28;20141;-67
2023/01/07 07:45:52;;;;;;;8.75;5.97;;;;;;;;;;5034056;28;20487;-67
2023/01/07 07:48:18;;;;;;;8.65;6.25;;;;;;;;;;5032536;28;20623;-67
2023/01/07 07:50:44;;;;;;;10.80;6.30;;;;;;;;;;5033491;28;20053;-67
2023/01/07 07:53:10;;;;;;;9.25;6.00;;;;;;;;;;5033639;28;20045;-67
2023/01/07 07:55:37;;;;;;;11.63;5.88;;;;;;;;;;5032177;28;20694;-67
2023/01/07 07:58:03;;;;;;;8.40;5.85;;;;;;;;;;5033619;28;20068;-67
2023/01/07 08:00:29;;;;;;;8.25;5.80;;;;;;;;;;5033895;28;20038;-67
2023/01/07 08:02:58;;;;;;;10.60;6.00;;;;;;;;;;5031644;28;20532;-67
2023/01/07 08:05:25;;;;;;;8.07;5.68;;;;;;;;;;5033552;28;20067;-67
2023/01/07 08:07:51;;;;;;;8.13;5.70;;;;;;;;;;5032396;28;20379;-67
2023/01/07 08:10:18;;;;;;;9.07;5.90;;;;;;;;;;5033192;28;20119;-68
2023/01/07 08:12:44;;;;;;;11.23;5.40;;;;;;;;;;5052644;28;20045;-67
2023/01/07 08:15:10;;;;;;;10.15;5.80;;;;;;;;;;5053454;28;20043;-67
2023/01/07 08:17:36;;;;;;;8.00;5.65;;;;;;;;;;5053012;28;20067;-67
2023/01/07 08:20:03;;;;;;;11.77;5.88;;;;;;;;;;5053221;28;20053;-67
2023/01/07 08:22:29;;;;;;;9.32;5.50;;;;;;;;;;5051512;28;20049;-67
2023/01/07 08:24:55;;;;;;;8.20;5.20;;;;;;;;;;5052964;28;20040;-67
2023/01/07 08:27:22;;;;;;;7.65;5.22;;;;;;;;;;5033691;28;20041;-67
2023/01/07 08:29:48;;;;;;;6.70;4.85;;;;;;;;;;5033246;28;20052;-67
2023/01/07 08:32:14;;;;;;;7.38;5.63;;;;;;;;;;5031328;28;20480;-67
2023/01/07 08:34:40;;;;;;;7.38;5.43;;;;;;;;;;5032955;28;20049;-67
2023/01/07 08:37:06;;;;;;;7.45;5.10;;;;;;;;;;5032994;28;20425;-67
2023/01/07 08:39:32;;;;;;;9.55;5.68;;;;;;;;;;5032591;28;20037;-67
2023/01/07 08:41:58;;;;;;;6.80;5.30;;;;;;;;;;5032771;28;20774;-67
2023/01/07 08:44:24;;;;;;;7.13;5.40;;;;;;;;;;5031340;28;20048;-67
2023/01/07 08:46:52;;;;;;;6.32;4.53;;;;;;;;;;5032559;28;20037;-67
2023/01/07 08:49:18;;;;;;;8.50;5.35;;;;;;;;;;5032708;28;20060;-67
2023/01/07 08:51:44;;;;;;;8.52;5.50;;;;;;;;;;5031543;28;20133;-67
2023/01/07 08:54:10;;;;;;;9.65;4.80;;;;;;;;;;5030883;28;20068;-67
2023/01/07 08:56:36;;;;;;;8.60;5.03;;;;;;;;;;5031587;28;20049;-67
2023/01/07 08:59:02;;;;;;;5.47;4.35;;;;;;;;;;5032588;28;20036;-67
2023/01/07 09:01:28;;;;;;;8.43;4.72;;;;;;;;;;5032399;28;20055;-67
2023/01/07 09:03:54;;;;;;;6.70;4.20;;;;;;;;;;5032259;28;20064;-67
2023/01/07 09:06:21;;;;;;;7.93;4.85;;;;;;;;;;5032712;28;20033;-67
2023/01/07 09:08:48;;;;;;;7.57;4.40;;;;;;;;;;5032063;28;20053;-67
2023/01/07 09:11:14;;;;;;;8.52;4.70;;;;;;;;;;5039049;28;20040;-67
2023/01/07 09:13:40;;;;;;;5.97;4.43;;;;;;;;;;5052183;28;20060;-67
2023/01/07 09:16:06;;;;;;;7.10;4.60;;;;;;;;;;5050857;28;20471;-67
2023/01/07 09:18:32;;;;;;;7.50;4.30;;;;;;;;;;5052408;28;20045;-67
2023/01/07 09:20:58;;;;;;;6.50;4.63;;;;;;;;;;5050833;28;20076;-67
2023/01/07 09:23:24;;;;;;;7.80;4.90;;;;;;;;;;5051695;28;20053;-67
2023/01/07 09:25:50;;;;;;;7.57;4.65;;;;;;;;;;5045483;28;20085;-67
2023/01/07 09:28:16;;;;;;;7.05;4.50;;;;;;;;;;5030868;28;20049;-67
2023/01/07 09:30:42;;;;;;;4.72;4.10;;;;;;;;;;5031623;28;20046;-67
2023/01/07 09:33:08;;;;;;;7.68;4.70;;;;;;;;;;5030687;28;20073;-67
2023/01/07 09:35:34;;;;;;;7.90;4.45;;;;;;;;;;5031994;28;20115;-67
2023/01/07 09:38:00;;;;;;;6.43;4.57;;;;;;;;;;5030408;28;20144;-67
2023/01/07 09:40:28;;;;;;;10.95;4.47;;;;;;;;;;5030288;28;20540;-67
2023/01/07 09:42:59;;;;;;;6.82;3.97;;;;;;;;;;5030137;28;20067;-67
2023/01/07 09:45:31;;;;;;;6.05;4.20;;;;;;;;;;5029832;28;20480;-67
2023/01/07 09:47:58;;;;;;;7.32;3.72;;;;;;;;;;5030105;28;20041;-67
2023/01/07 09:50:29;;;;;;;7.72;4.32;;;;;;;;;;5028899;28;20077;-67
2023/01/07 09:52:57;;;;;;;6.78;4.15;;;;;;;;;;5029554;28;20061;-67
2023/01/07 09:55:25;;;;;;;7.93;4.45;;;;;;;;;;5029530;28;20439;-67
2023/01/07 09:57:51;;;;;;;5.80;4.00;;;;;;;;;;5029994;28;20089;-67
2023/01/07 10:00:19;;;;;;;5.78;4.20;;;;;;;;;;5029462;28;20050;-67
2023/01/07 10:02:57;;;;;;;7.53;3.70;;;;;;;;;;5028165;28;20069;-67
2023/01/07 10:05:42;;;;;;;8.10;4.40;;;;;;;;;;5029875;28;20045;-67
2023/01/07 10:08:08;;;;;;;5.00;3.88;;;;;;;;;;5011679;28;20041;-67
2023/01/07 10:10:38;;;;;;;7.97;4.20;;;;;;;;;;5030908;28;20044;-67
2023/01/07 10:13:16;;;;;;;5.22;3.80;;;;;;;;;;5048129;28;20036;-67
2023/01/07 10:15:58;;;;;;;7.03;4.40;;;;;;;;;;5047799;28;20047;-67
2023/01/07 10:18:38;;;;;;;4.63;3.72;;;;;;;;;;5049784;28;20127;-67
2023/01/07 10:21:25;;;;;;;6.32;4.10;;;;;;;;;;5048410;28;20075;-67
2023/01/07 10:23:57;;;;;;;4.20;3.38;;;;;;;;;;5048242;28;20438;-67
2023/01/07 10:26:31;;;;;;;3.45;2.92;;;;;;;;;;5037185;28;20038;-67
2023/01/07 10:29:01;;;;;;;4.18;2.95;;;;;;;;;;5027104;28;20049;-67
2023/01/07 10:31:27;;;;;;;5.47;3.03;;;;;;;;;;5028437;28;20045;-67
2023/01/07 10:33:56;;;;;;;4.90;3.03;;;;;;;;;;5028748;28;20053;-67
2023/01/07 10:36:25;;;;;;;3.90;2.72;;;;;;;;;;5028431;28;20045;-67
2023/01/07 10:38:55;;;;;;;4.95;2.50;;;;;;;;;;5028536;28;20121;-67
2023/01/07 10:41:26;;;;;;;2.92;2.35;;;;;;;;;;5028329;28;20050;-67
2023/01/07 10:44:25;;;;;;;4.53;2.60;;;;;;;;;;5026864;28;20048;-67
2023/01/07 10:46:57;;;;;;;3.67;2.60;;;;;;;;;;5027933;28;20045;-67
2023/01/07 10:49:32;;;;;;;3.65;2.58;;;;;;;;;;5028543;28;20381;-67
2023/01/07 10:52:21;;;;;;;5.30;2.47;;;;;;;;;;5009968;28;20060;-67
2023/01/07 10:55:13;;;;;;;5.30;2.47;;;;;;;;;;5028786;28;20037;-67
2023/01/07 10:57:39;;;;;;;3.22;2.50;;;;;;;;;;5026149;28;20530;-67
2023/01/07 11:00:10;;;;;;;5.22;2.60;;;;;;;;;;5026755;28;20037;-67
2023/01/07 11:02:37;;;;;;;4.93;2.80;;;;;;;;;;5027899;28;20082;-67
2023/01/07 11:05:03;;;;;;;2.92;2.10;;;;;;;;;;5027121;28;20030;-67
2023/01/07 11:07:45;;;;;;;3.78;2.40;;;;;;;;;;5026391;28;20063;-67
2023/01/07 11:10:13;;;;;;;3.47;2.30;;;;;;;;;;5027852;28;20048;-67
2023/01/07 11:12:41;;;;;;;8.05;2.45;;;;;;;;;;5046334;28;20072;-67
2023/01/07 11:15:19;;;;;;;2.53;2.03;;;;;;;;;;5047439;28;20498;-67
2023/01/07 11:17:49;;;;;;;2.92;2.53;;;;;;;;;;5046652;28;20125;-67
2023/01/07 11:20:35;;;;;;;2.80;2.20;;;;;;;;;;5009650;28;1066785;-67
2023/01/07 11:23:01;;;;;;;2.60;2.33;;;;;;;;;;5046585;28;20124;-67
2023/01/07 11:25:28;;;;;;;4.10;2.33;;;;;;;;;;5045522;28;20539;-67
2023/01/07 11:27:58;;;;;;;3.60;1.98;;;;;;;;;;5028668;28;20403;-67
2023/01/07 11:30:26;;;;;;;6.40;2.40;;;;;;;;;;5028200;28;20056;-67
2023/01/07 11:32:55;;;;;;;3.67;2.33;;;;;;;;;;5028440;28;20033;-67
2023/01/07 11:35:22;;;;;;;4.75;2.38;;;;;;;;;;5027780;28;20496;-67
2023/01/07 11:37:49;;;;;;;4.45;2.45;;;;;;;;;;5026949;28;20057;-67
2023/01/07 11:40:15;;;;;;;2.80;1.92;;;;;;;;;;5028559;28;20389;-67
2023/01/07 11:42:50;;;;;;;3.10;2.00;;;;;;;;;;5028355;28;20436;-67
2023/01/07 11:45:20;;;;;;;3.03;2.10;;;;;;;;;;5028404;28;20041;-67
2023/01/07 11:47:48;;;;;;;2.80;1.80;;;;;;;;;;5028311;28;20038;-67
2023/01/07 11:50:28;;;;;;;3.67;1.95;;;;;;;;;;5028694;28;20197;-67
2023/01/07 11:52:59;;;;;;;1.80;1.60;;;;;;;;;;5028197;28;20048;-67
2023/01/07 11:55:25;;;;;;;2.95;1.77;;;;;;;;;;5028696;28;20120;-67
2023/01/07 11:57:57;;;;;;;4.25;2.00;;;;;;;;;;5028108;28;20061;-67
2023/01/07 12:00:24;;;;;;;2.97;2.10;;;;;;;;;;5028696;28;20516;-67
2023/01/07 12:03:00;;;;;;;2.95;1.92;;;;;;;;;;5026798;28;20041;-67
2023/01/07 12:05:27;;;;;;;2.83;1.90;;;;;;;;;;5028275;28;20038;-67
2023/01/07 12:07:53;;;;;;;3.17;2.50;;;;;;;;;;5027092;28;20046;-67
2023/01/07 12:10:39;;;;;;;4.15;2.40;;;;;;;;;;5026758;28;20128;-67
2023/01/07 12:13:16;;;;;;;3.17;2.05;;;;;;;;;;5007921;28;20362;-67
2023/01/07 12:15:57;;;;;;;4.70;2.88;;;;;;;;;;5009001;28;20050;-67
2023/01/07 12:18:29;;;;;;;3.15;2.30;;;;;;;;;;5008417;28;20046;-67
2023/01/07 12:21:18;;;;;;;3.00;2.50;;;;;;;;;;5011345;28;20050;-67
2023/01/07 12:23:56;;;;;;;3.90;2.30;;;;;;;;;;5010300;28;20046;-67
2023/01/07 12:26:24;;;;;;;4.07;2.10;;;;;;;;;;5023277;28;20083;-67
2023/01/07 12:28:58;;;;;;;1.95;1.80;;;;;;;;;;5031234;28;20045;-67
2023/01/07 12:31:33;;;;;;;2.15;1.48;;;;;;;;;;5014391;28;20399;-67
2023/01/07 12:34:05;;;;;;;5.82;1.73;;;;;;;;;;5031383;28;20049;-67
2023/01/07 12:36:44;;;;;;;1.45;1.35;;;;;;;;;;5030142;28;20049;-67
2023/01/07 12:39:30;;;;;;;3.25;1.65;;;;;;;;;;5029968;28;20056;-67
2023/01/07 12:42:06;;;;;;;3.05;1.70;;;;;;;;;;5029954;28;20037;-67
2023/01/07 12:44:34;;;;;;;2.90;1.70;;;;;;;;;;5030884;28;20585;-67
2023/01/07 12:47:07;;;;;;;2.15;1.60;;;;;;;;;;5031617;28;20041;-67
2023/01/07 12:49:41;;;;;;;1.95;1.50;;;;;;;;;;5029776;28;20173;-67
2023/01/07 12:52:12;;;;;;;3.67;1.70;;;;;;;;;;5031039;28;20045;-67
2023/01/07 12:54:51;;;;;;;3.22;1.30;;;;;;;;;;5031110;28;20084;-67
2023/01/07 12:57:20;;;;;;;1.52;1.27;;;;;;;;;;5031153;28;20055;-67
2023/01/07 13:00:07;;;;;;;2.33;1.45;;;;;;;;;;5031306;28;20467;-67
2023/01/07 13:02:53;;;;;;;2.35;1.67;;;;;;;;;;5029464;28;20405;-67
2023/01/07 13:05:35;;;;;;;4.07;1.67;;;;;;;;;;5030581;28;20037;-67
2023/01/07 13:08:11;;;;;;;3.17;1.50;;;;;;;;;;5032293;28;20041;-67
2023/01/07 13:10:56;;;;;;;4.65;2.50;;;;;;;;;;5032481;28;20133;-67
2023/01/07 13:13:51;;;;;;;2.35;1.80;;;;;;;;;;5051665;28;20091;-67
2023/01/07 13:16:18;;;;;;;3.20;1.70;;;;;;;;;;5046902;28;20141;-67
2023/01/07 13:18:44;;;;;;;5.00;2.28;;;;;;;;;;5050883;28;20041;-67
2023/01/07 13:21:11;;;;;;;2.38;1.60;;;;;;;;;;5051231;28;20057;-67
2023/01/07 13:24:00;;;;;;;3.28;1.50;;;;;;;;;;5050440;28;20041;-66
2023/01/07 13:26:33;;;;;;;2.85;1.40;;;;;;;;;;5018878;28;20132;-66
2023/01/07 13:29:18;;;;;;;2.22;1.50;;;;;;;;;;5030375;28;20570;-66
2023/01/07 13:31:56;;;;;;;2.20;1.55;;;;;;;;;;5029314;28;20045;-66
2023/01/07 13:34:22;;;;;;;4.15;2.65;;;;;;;;;;5030026;28;20091;-66
2023/01/07 13:36:48;;;;;;;4.95;2.05;;;;;;;;;;5028731;28;20045;-66
2023/01/07 13:39:23;;;;;;;7.30;2.00;;;;;;;;;;5030543;28;20373;-66
2023/01/07 13:41:55;;;;;;;4.38;2.25;;;;;;;;;;5029901;28;20044;-67
2023/01/07 13:44:34;;;;;;;4.90;1.77;;;;;;;;;;5030463;28;20042;-67
2023/01/07 13:47:02;;;;;;;2.65;1.50;;;;;;;;;;5028808;28;20415;-67
2023/01/07 13:49:30;;;;;;;4.22;2.10;;;;;;;;;;5029860;28;20080;-67
2023/01/07 13:51:56;;;;;;;2.42;1.70;;;;;;;;;;5030052;28;20060;-67
2023/01/07 13:54:41;;;;;;;3.58;1.92;;;;;;;;;;5030177;28;20147;-67
2023/01/07 13:57:30;;;;;;;3.95;2.35;;;;;;;;;;5029702;28;20104;-67
2023/01/07 13:59:57;;;;;;;3.28;2.38;;;;;;;;;;5028511;28;20127;-67
2023/01/07 14:02:43;;;;;;;3.65;2.00;;;;;;;;;;5029800;28;20040;-66
2023/01/07 14:05:09;;;;;;;2.55;2.28;;;;;;;;;;5029348;28;20045;-66
2023/01/07 14:07:45;;;;;;;3.03;2.17;;;;;;;;;;5028490;28;20218;-66
2023/01/07 14:10:25;;;;;;;4.10;2.55;;;;;;;;;;5030007;28;20500;-67
2023/01/07 14:13:03;;;;;;;3.47;2.15;;;;;;;;;;5029233;28;20523;-67
2023/01/07 14:15:32;;;;;;;3.30;2.05;;;;;;;;;;5012078;28;20053;-67
2023/01/07 14:18:01;;;;;;;3.28;2.05;;;;;;;;;;5029620;28;20080;-67
2023/01/07 14:20:54;;;;;;;3.15;1.95;;;;;;;;;;5028955;28;20056;-67
2023/01/07 14:23:28;;;;;;;3.53;2.17;;;;;;;;;;5026674;28;20053;-67
2023/01/07 14:26:17;;;;;;;4.45;2.38;;;;;;;;;;5029099;28;20057;-67
2023/01/07 14:28:43;;;;;;;3.78;1.90;;;;;;;;;;5027994;28;20095;-67
2023/01/07 14:31:23;;;;;;;2.42;1.85;;;;;;;;;;5027944;28;20057;-67
2023/01/07 14:33:51;;;;;;;4.82;2.22;;;;;;;;;;5028913;28;20067;-67
2023/01/07 14:36:17;;;;;;;4.15;1.98;;;;;;;;;;5029227;28;20046;-67
2023/01/07 14:38:43;;;;;;;3.92;2.33;;;;;;;;;;5029401;28;20034;-67
2023/01/07 14:41:15;;;;;;;2.58;1.88;;;;;;;;;;5029071;28;20367;-67
2023/01/07 14:43:44;;;;;;;4.82;1.90;;;;;;;;;;5029135;28;20132;-67
2023/01/07 14:46:22;;;;;;;2.95;1.67;;;;;;;;;;5029235;28;20397;-67
2023/01/07 14:49:15;;;;;;;2.60;1.90;;;;;;;;;;5029086;28;20408;-67